GB-0003 weather

CLOSED Alexandra Park Aerodrome
Manchester, England, United Kingdom

Public forecast

Using degrees Celsius for public forecast. Weather courtesy of forecast.io.

Closest aviation weather report (METAR) to Alexandra Park Aerodrome

Closest report is Manchester Airport, 5.0 nm (9.3 km) S. Retrieved 2019/11/21 23:20 UTC (10 minutes ago):

EGCC 212320Z AUTO 09008KT 020V140 9999 OVC010 05/03 Q0998 NOSIG

Closest aviation forecast (TAF) to Alexandra Park Aerodrome

Closest forecast is Manchester Airport, 5.0 nm (9.3 km) S. Retrieved 2019/11/21 18:00 UTC (5 hours ago):

TAF EGCC 211657Z 2118/2224 10008KT 9999 BKN018 BECMG 2118/2121 BKN012 PROB40 TEMPO 2118/2123 4000 BR BKN009 TEMPO 2123/2207 4000 RA BKN005 BECMG 2206/2209 SCT020 TEMPO 2209/2220 4000 RA BKN012